Time;durP1;ratioP1;P1;durP2;ratioP2;P2;SDS_P1;SDS_P2;PMS_P1;PMS_P2;Temp;Humidity;BMP_temperature;BMP_pressure;BME280_temperature;BME280_humidity;BME280_pressure;Samples;Min_cycle;Max_cycle;Signal;HPM_P1;HPM_P2
2022/04/05 00:00:09;;;;;;;49.45;18.85;;;;;;;9.05;100.00;100485.31;5019846;28;20501;-62
2022/04/05 00:02:34;;;;;;;46.22;18.23;;;;;;;9.05;100.00;100490.63;5027352;28;20040;-63
2022/04/05 00:05:00;;;;;;;41.75;17.98;;;;;;;9.05;100.00;100487.16;5024621;28;20034;-62
2022/04/05 00:07:25;;;;;;;41.88;17.80;;;;;;;9.04;100.00;100490.78;5022293;28;20029;-62
2022/04/05 00:09:51;;;;;;;41.15;18.13;;;;;;;9.05;100.00;100489.81;5020088;28;20044;-62
2022/04/05 00:12:20;;;;;;;35.30;17.42;;;;;;;9.06;100.00;100486.16;5023930;28;20038;-62
2022/04/05 00:14:45;;;;;;;37.60;17.10;;;;;;;9.07;100.00;100501.06;5025482;28;20033;-62
2022/04/05 00:17:11;;;;;;;31.35;16.08;;;;;;;9.06;100.00;100492.28;5022670;28;20033;-62
2022/04/05 00:19:36;;;;;;;34.42;16.88;;;;;;;9.06;100.00;100499.41;5026554;28;20473;-62
2022/04/05 00:22:31;;;;;;;33.28;16.55;;;;;;;9.06;100.00;100507.34;5027515;28;20033;-62
2022/04/05 00:24:56;;;;;;;36.88;16.60;;;;;;;9.00;100.00;100500.91;5024765;28;20136;-62
2022/04/05 00:27:21;;;;;;;39.67;17.38;;;;;;;9.00;100.00;100504.38;5024669;28;20113;-62
2022/04/05 00:29:47;;;;;;;33.17;17.10;;;;;;;9.02;100.00;100506.84;5025472;28;20026;-62
2022/04/05 00:32:12;;;;;;;39.72;16.70;;;;;;;9.00;100.00;100503.56;5019826;28;20384;-62
2022/04/05 00:34:39;;;;;;;29.95;16.83;;;;;;;9.00;100.00;100499.09;5027269;28;20067;-61
2022/04/05 00:37:05;;;;;;;33.90;17.00;;;;;;;8.99;100.00;100497.44;5026646;28;20033;-63
2022/04/05 00:39:30;;;;;;;38.45;17.63;;;;;;;8.99;100.00;100502.72;5023880;28;20100;-62
2022/04/05 00:41:56;;;;;;;37.35;18.25;;;;;;;9.02;100.00;100501.56;5026182;28;20105;-61
2022/04/05 00:44:22;;;;;;;42.00;19.48;;;;;;;9.00;100.00;100506.19;5026454;28;20496;-62
2022/04/05 00:46:49;;;;;;;35.97;19.35;;;;;;;8.97;100.00;100499.41;5024152;28;20033;-61
2022/04/05 00:49:30;;;;;;;38.53;20.55;;;;;;;8.97;100.00;100503.91;5024775;28;20060;-62
2022/04/05 00:51:57;;;;;;;35.53;19.83;;;;;;;8.99;100.00;100500.09;5018417;28;20313;-62
2022/04/05 00:54:25;;;;;;;38.17;20.13;;;;;;;9.03;100.00;100502.38;5025399;28;20511;-63
2022/04/05 00:56:52;;;;;;;35.88;20.95;;;;;;;9.01;100.00;100507.84;5026110;28;20021;-63
2022/04/05 00:59:19;;;;;;;41.70;22.85;;;;;;;9.05;100.00;100505.69;5026507;28;20025;-61
2022/04/05 01:01:46;;;;;;;39.08;21.90;;;;;;;9.00;100.00;100512.31;5024523;28;20041;-62
2022/04/05 01:04:12;;;;;;;40.03;22.40;;;;;;;9.00;100.00;100509.69;5020508;28;20075;-62
2022/04/05 01:06:44;;;;;;;37.90;21.42;;;;;;;8.99;100.00;100512.50;5019548;28;20029;-62
2022/04/05 01:09:09;;;;;;;40.05;21.58;;;;;;;8.97;100.00;100512.66;5023026;28;20151;-62
2022/04/05 01:11:35;;;;;;;43.85;22.13;;;;;;;8.97;100.00;100509.19;5024573;28;20464;-62
2022/04/05 01:14:01;;;;;;;35.17;20.58;;;;;;;8.95;100.00;100511.97;5025513;28;20030;-62
2022/04/05 01:16:26;;;;;;;35.30;21.58;;;;;;;8.96;100.00;100512.81;5023755;28;20028;-63
2022/04/05 01:18:52;;;;;;;40.10;22.25;;;;;;;8.94;100.00;100501.56;5023448;28;20026;-62
2022/04/05 01:21:18;;;;;;;38.67;21.92;;;;;;;8.95;100.00;100511.97;5019168;28;20355;-62
2022/04/05 01:24:07;;;;;;;39.85;22.27;;;;;;;8.96;100.00;100511.00;5027364;28;20436;-61
2022/04/05 01:26:38;;;;;;;39.10;21.40;;;;;;;8.96;100.00;100518.09;5022400;28;20056;-62
2022/04/05 01:29:04;;;;;;;43.97;22.40;;;;;;;8.97;100.00;100514.50;5021527;28;20552;-61
2022/04/05 01:31:30;;;;;;;43.83;22.45;;;;;;;8.95;100.00;100519.09;5019737;28;20021;-62
2022/04/05 01:33:55;;;;;;;43.88;23.02;;;;;;;8.95;100.00;100525.22;5019912;28;20029;-62
2022/04/05 01:36:22;;;;;;;39.28;23.00;;;;;;;8.96;100.00;100523.41;5025545;28;20160;-62
2022/04/05 01:38:47;;;;;;;45.42;23.10;;;;;;;8.92;100.00;100528.19;5016190;28;20087;-62
2022/04/05 01:41:13;;;;;;;39.30;22.50;;;;;;;8.92;100.00;100519.44;5023733;28;20104;-62
2022/04/05 01:43:40;;;;;;;44.05;23.35;;;;;;;8.92;100.00;100528.19;5016403;28;20610;-61
2022/04/05 01:46:06;;;;;;;43.83;22.23;;;;;;;8.91;100.00;100515.97;5023925;28;20041;-63
2022/04/05 01:48:31;;;;;;;40.95;22.35;;;;;;;8.89;100.00;100512.66;5019018;28;20046;-61
2022/04/05 01:50:56;;;;;;;41.17;22.77;;;;;;;8.90;100.00;100518.78;5020414;28;20067;-61
2022/04/05 01:53:22;;;;;;;40.40;22.52;;;;;;;8.90;100.00;100529.38;5021201;28;20029;-62
2022/04/05 01:55:47;;;;;;;46.10;23.75;;;;;;;8.89;100.00;100523.25;5021841;28;20082;-62
2022/04/05 01:58:12;;;;;;;44.10;24.02;;;;;;;8.88;100.00;100521.59;5025882;28;20041;-62
2022/04/05 02:00:38;;;;;;;42.17;23.88;;;;;;;8.88;100.00;100516.31;5025742;28;20498;-62
2022/04/05 02:03:03;;;;;;;43.10;23.73;;;;;;;8.89;100.00;100528.53;5020865;28;20033;-63
2022/04/05 02:05:28;;;;;;;45.60;23.88;;;;;;;8.89;100.00;100523.25;5015792;28;20025;-61
2022/04/05 02:07:54;;;;;;;44.17;23.98;;;;;;;8.88;100.00;100518.13;5025408;28;20033;-61
2022/04/05 02:10:33;;;;;;;39.63;23.08;;;;;;;8.87;100.00;100519.13;5021071;28;20044;-63
2022/04/05 02:13:05;;;;;;;36.85;23.05;;;;;;;8.86;100.00;100517.47;5018724;28;20052;-63
2022/04/05 02:15:31;;;;;;;35.88;22.02;;;;;;;8.84;100.00;100514.97;5024821;28;20033;-62
2022/04/05 02:17:56;;;;;;;40.00;22.60;;;;;;;8.83;100.00;100518.63;5025566;28;20112;-62
2022/04/05 02:20:30;;;;;;;41.35;22.00;;;;;;;8.85;100.00;100526.41;5021106;28;20057;-62
2022/04/05 02:22:56;;;;;;;37.03;21.60;;;;;;;8.79;100.00;100511.19;5020641;28;20025;-62
2022/04/05 02:25:27;;;;;;;38.65;22.95;;;;;;;8.83;100.00;100538.97;5024075;28;20037;-62
2022/04/05 02:27:52;;;;;;;40.92;23.02;;;;;;;8.82;100.00;100535.50;5021369;28;20036;-63
2022/04/05 02:30:18;;;;;;;38.65;22.45;;;;;;;8.79;100.00;100535.84;5023486;28;20025;-62
2022/04/05 02:32:44;;;;;;;39.25;22.63;;;;;;;8.79;100.00;100530.53;5026227;28;20075;-61
2022/04/05 02:35:10;;;;;;;38.03;21.15;;;;;;;8.78;100.00;100531.53;5023957;28;20041;-62
2022/04/05 02:37:36;;;;;;;36.88;21.73;;;;;;;8.81;100.00;100533.03;5018474;28;20500;-62
2022/04/05 02:40:02;;;;;;;36.13;19.90;;;;;;;8.80;100.00;100526.91;5020556;28;20025;-62
2022/04/05 02:42:27;;;;;;;36.35;20.05;;;;;;;8.80;100.00;100526.91;5021600;28;20045;-62
2022/04/05 02:44:53;;;;;;;37.22;19.92;;;;;;;8.80;100.00;100524.25;5034983;28;20029;-61
2022/04/05 02:47:18;;;;;;;29.40;18.92;;;;;;;8.79;100.00;100527.91;5022771;28;20478;-61
2022/04/05 02:49:43;;;;;;;34.60;18.77;;;;;;;8.83;100.00;100528.38;5027358;28;20064;-62
2022/04/05 02:52:08;;;;;;;29.25;19.23;;;;;;;8.81;100.00;100531.22;5019225;28;20030;-61
2022/04/05 02:54:34;;;;;;;31.27;18.38;;;;;;;8.79;100.00;100524.44;5025186;28;20417;-62
2022/04/05 02:56:59;;;;;;;35.13;18.77;;;;;;;8.77;100.00;100521.13;5021432;28;20033;-62
2022/04/05 02:59:24;;;;;;;30.70;18.25;;;;;;;8.76;100.00;100522.94;5025500;28;20091;-60
2022/04/05 03:01:50;;;;;;;32.50;18.50;;;;;;;8.76;100.00;100519.47;5024665;28;20104;-62
2022/04/05 03:04:15;;;;;;;33.97;17.58;;;;;;;8.77;100.00;100515.81;5027383;28;20034;-62
2022/04/05 03:06:41;;;;;;;30.83;18.33;;;;;;;8.75;100.00;100515.16;5023571;28;20038;-61
2022/04/05 03:09:06;;;;;;;32.92;19.05;;;;;;;8.74;100.00;100514.34;5026917;28;20021;-62
2022/04/05 03:11:31;;;;;;;40.47;20.02;;;;;;;8.75;100.00;100520.47;5029941;28;20030;-62
2022/04/05 03:13:57;;;;;;;39.72;21.40;;;;;;;8.72;100.00;100516.31;5024901;28;20116;-61
2022/04/05 03:16:22;;;;;;;38.45;21.55;;;;;;;8.73;100.00;100519.81;5030450;28;20076;-62
2022/04/05 03:18:47;;;;;;;39.28;23.35;;;;;;;8.73;100.00;100525.09;5023942;28;20451;-63
2022/04/05 03:21:13;;;;;;;39.38;21.00;;;;;;;8.74;100.00;100526.75;5028998;28;20916;-62
2022/04/05 03:23:39;;;;;;;35.05;21.05;;;;;;;8.76;100.00;100528.25;5028666;28;20033;-61
2022/04/05 03:26:04;;;;;;;36.35;20.25;;;;;;;8.77;100.00;100526.41;5029190;28;20091;-61
2022/04/05 03:28:30;;;;;;;32.00;18.45;;;;;;;8.76;100.00;100522.94;5025604;28;20529;-62
2022/04/05 03:30:55;;;;;;;30.75;17.90;;;;;;;8.77;100.00;100526.41;5026975;28;20109;-61
2022/04/05 03:33:21;;;;;;;29.55;17.52;;;;;;;8.76;100.00;100522.94;5029638;28;20045;-61
2022/04/05 03:35:46;;;;;;;32.17;17.38;;;;;;;8.74;100.00;100519.63;5028596;28;20032;-61
2022/04/05 03:38:12;;;;;;;29.20;18.05;;;;;;;8.68;100.00;100512.38;5027643;28;20052;-61
2022/04/05 03:40:37;;;;;;;28.50;16.63;;;;;;;8.73;100.00;100517.97;5029267;28;20025;-61
2022/04/05 03:43:03;;;;;;;24.92;16.00;;;;;;;8.79;100.00;100532.38;5029482;28;20033;-61
2022/04/05 03:45:29;;;;;;;25.73;15.27;;;;;;;8.79;100.00;100519.13;5029371;28;20024;-61
2022/04/05 03:47:54;;;;;;;30.52;16.70;;;;;;;8.80;100.00;100518.97;5029160;28;20034;-62
2022/04/05 03:50:19;;;;;;;24.63;15.05;;;;;;;8.80;100.00;100518.97;5023138;28;20113;-61
2022/04/05 03:52:45;;;;;;;26.92;15.05;;;;;;;8.83;100.00;100518.63;5025796;28;20509;-62
2022/04/05 03:55:11;;;;;;;25.58;15.77;;;;;;;8.81;100.00;100514.50;5028558;28;20473;-62
2022/04/05 03:57:37;;;;;;;30.13;17.10;;;;;;;8.73;100.00;100510.03;5028698;28;20025;-61
2022/04/05 04:00:03;;;;;;;26.63;15.40;;;;;;;8.83;100.00;100520.44;5027982;28;20024;-61
2022/04/05 04:02:34;;;;;;;25.55;15.63;;;;;;;8.81;100.00;100525.91;5029021;28;20033;-62
2022/04/05 04:04:59;;;;;;;25.63;15.55;;;;;;;8.80;100.00;100518.97;5026910;28;20033;-62
2022/04/05 04:07:24;;;;;;;26.45;14.93;;;;;;;8.82;100.00;100518.78;5027666;28;20029;-62
2022/04/05 04:09:51;;;;;;;25.30;15.85;;;;;;;8.78;100.00;100513.00;5033311;28;20084;-62
2022/04/05 04:12:16;;;;;;;26.48;15.70;;;;;;;8.82;100.00;100513.50;5033396;28;20032;-62
2022/04/05 04:14:41;;;;;;;28.92;15.75;;;;;;;8.84;100.00;100508.84;5028456;28;20029;-61
2022/04/05 04:17:07;;;;;;;31.10;15.88;;;;;;;8.85;100.00;100513.16;5028780;28;20033;-61
2022/04/05 04:19:32;;;;;;;24.20;15.23;;;;;;;8.84;100.00;100511.50;5023306;28;20071;-61
2022/04/05 04:21:58;;;;;;;27.65;15.70;;;;;;;8.81;100.00;100503.91;5026617;28;20033;-61
2022/04/05 04:24:23;;;;;;;25.45;15.43;;;;;;;8.81;100.00;100499.44;5025744;28;20037;-61
2022/04/05 04:26:48;;;;;;;25.90;15.10;;;;;;;8.82;100.00;100511.69;5028709;28;20072;-61
2022/04/05 04:29:14;;;;;;;26.27;14.85;;;;;;;8.82;100.00;100509.03;5024295;28;20116;-61
2022/04/05 04:31:40;;;;;;;28.95;16.02;;;;;;;8.79;100.00;100506.72;5026661;28;20486;-61
2022/04/05 04:34:05;;;;;;;28.02;15.38;;;;;;;8.80;100.00;100507.53;5027952;28;20185;-62
2022/04/05 04:36:31;;;;;;;25.95;15.23;;;;;;;8.79;100.00;100503.25;5028430;28;20032;-61
2022/04/05 04:38:57;;;;;;;24.67;15.45;;;;;;;8.83;100.00;100513.31;5026306;28;20029;-61
2022/04/05 04:41:23;;;;;;;25.67;16.15;;;;;;;8.82;100.00;100518.78;5027708;28;20080;-61
2022/04/05 04:43:49;;;;;;;26.13;16.42;;;;;;;8.82;100.00;100524.91;5021414;28;20636;-61
2022/04/05 04:46:15;;;;;;;28.63;15.07;;;;;;;8.80;100.00;100512.84;5024389;28;20508;-61
2022/04/05 04:48:40;;;;;;;23.80;15.73;;;;;;;8.81;100.00;100522.44;5024644;28;20033;-61
2022/04/05 04:51:05;;;;;;;25.50;15.65;;;;;;;8.82;100.00;100509.03;5028065;28;20579;-61
2022/04/05 04:53:31;;;;;;;25.48;15.32;;;;;;;8.82;100.00;100518.78;5023989;28;20040;-61
2022/04/05 04:55:57;;;;;;;30.40;16.33;;;;;;;8.78;100.00;100515.66;5026918;28;20029;-61
2022/04/05 04:58:23;;;;;;;26.38;15.98;;;;;;;8.79;100.00;100522.59;5026731;28;20101;-61
2022/04/05 05:00:48;;;;;;;29.45;15.68;;;;;;;8.81;100.00;100519.78;5025566;28;20033;-62
2022/04/05 05:03:18;;;;;;;24.60;15.45;;;;;;;8.83;100.00;100525.75;5024789;28;20037;-61
2022/04/05 05:05:43;;;;;;;27.85;15.65;;;;;;;8.82;100.00;100532.03;5026355;28;20037;-61
2022/04/05 05:08:08;;;;;;;25.58;16.63;;;;;;;8.83;100.00;100518.63;5024856;28;20055;-62
2022/04/05 05:10:34;;;;;;;25.38;16.48;;;;;;;8.82;100.00;100522.28;5027902;28;20026;-61
2022/04/05 05:12:59;;;;;;;29.63;16.98;;;;;;;8.80;100.00;100524.25;5026931;28;20111;-62
2022/04/05 05:15:25;;;;;;;26.88;16.55;;;;;;;8.80;100.00;100521.59;5026301;28;20032;-63
2022/04/05 05:17:50;;;;;;;28.58;16.10;;;;;;;8.83;100.00;100531.88;5026311;28;20038;-61
2022/04/05 05:20:16;;;;;;;29.45;16.90;;;;;;;8.80;100.00;100526.06;5026557;28;20033;-62
2022/04/05 05:22:42;;;;;;;30.25;16.73;;;;;;;8.82;100.00;100534.69;5026706;28;20040;-61
2022/04/05 05:25:09;;;;;;;28.35;15.95;;;;;;;8.80;100.00;100545.44;5027586;28;20037;-61
2022/04/05 05:27:34;;;;;;;26.80;16.27;;;;;;;8.79;100.00;100530.53;5026256;28;20576;-62
2022/04/05 05:30:00;;;;;;;25.67;15.70;;;;;;;8.79;100.00;100532.38;5024420;28;20128;-61
2022/04/05 05:32:25;;;;;;;25.55;15.40;;;;;;;8.76;100.00;100527.41;5017724;28;20035;-61
2022/04/05 05:34:51;;;;;;;26.65;15.98;;;;;;;8.76;100.00;100524.75;5022159;28;20087;-62
2022/04/05 05:37:16;;;;;;;27.17;16.08;;;;;;;8.77;100.00;100531.72;5021679;28;20029;-61
2022/04/05 05:39:41;;;;;;;25.52;15.85;;;;;;;8.73;100.00;100533.03;5026396;28;20037;-63
2022/04/05 05:42:08;;;;;;;26.23;15.50;;;;;;;8.73;100.00;100539.16;5027383;28;20473;-62
2022/04/05 05:44:34;;;;;;;24.48;14.75;;;;;;;8.76;100.00;100532.69;5025688;28;20479;-62
2022/04/05 05:47:00;;;;;;;24.85;14.95;;;;;;;8.76;100.00;100543.28;5027188;28;20185;-61
2022/04/05 05:49:26;;;;;;;25.25;15.25;;;;;;;8.73;100.00;100538.34;5025054;28;20535;-61
2022/04/05 05:51:51;;;;;;;24.25;15.57;;;;;;;8.71;100.00;100538.50;5021975;28;20061;-63
2022/04/05 05:54:17;;;;;;;22.27;14.88;;;;;;;8.74;100.00;100550.56;5023616;28;20481;-62
2022/04/05 05:56:43;;;;;;;26.10;15.25;;;;;;;8.75;100.00;100555.72;5021765;28;20037;-62
2022/04/05 05:59:08;;;;;;;28.70;16.30;;;;;;;8.73;100.00;100546.28;5025834;28;20103;-62
2022/04/05 06:01:34;;;;;;;27.60;16.83;;;;;;;8.73;100.00;100549.75;5025054;28;20045;-62
2022/04/05 06:03:59;;;;;;;30.95;17.08;;;;;;;8.73;100.00;100555.03;5020830;28;20029;-62
2022/04/05 06:06:24;;;;;;;34.90;17.40;;;;;;;8.75;100.00;100550.41;5022365;28;20171;-62
2022/04/05 06:08:50;;;;;;;32.15;18.60;;;;;;;8.74;100.00;100551.41;5021948;28;20104;-59
2022/04/05 06:11:16;;;;;;;34.67;18.70;;;;;;;8.77;100.00;100555.53;5020176;28;20420;-60
2022/04/05 06:13:41;;;;;;;34.13;18.52;;;;;;;8.76;100.00;100557.34;5026097;28;20083;-59
2022/04/05 06:16:09;;;;;;;31.70;18.85;;;;;;;8.77;100.00;100548.41;5022098;28;20033;-59
2022/04/05 06:18:35;;;;;;;34.58;17.30;;;;;;;8.79;100.00;100557.03;5029536;28;20034;-60
2022/04/05 06:21:00;;;;;;;32.70;17.20;;;;;;;8.82;100.00;100558.50;5028502;28;20071;-60
2022/04/05 06:23:26;;;;;;;31.42;17.60;;;;;;;8.86;100.00;100557.19;5021699;28;20033;-59
2022/04/05 06:25:51;;;;;;;31.25;16.45;;;;;;;8.89;100.00;100556.84;5028035;28;20045;-60
2022/04/05 06:28:18;;;;;;;30.75;16.08;;;;;;;8.90;100.00;100556.69;5026577;28;20421;-59
2022/04/05 06:30:44;;;;;;;30.75;16.08;;;;;;;8.94;100.00;100565.13;5023352;28;20041;-59
2022/04/05 06:33:12;;;;;;;23.80;14.57;;;;;;;8.96;100.00;100571.94;5028809;28;20025;-59
2022/04/05 06:35:39;;;;;;;26.08;15.25;;;;;;;8.98;100.00;100566.47;5029216;28;20033;-60
2022/04/05 06:38:05;;;;;;;26.45;15.65;;;;;;;8.97;100.00;100575.41;5025991;28;20076;-60
2022/04/05 06:40:30;;;;;;;28.67;15.00;;;;;;;9.02;100.00;100574.91;5028378;28;20111;-60
2022/04/05 06:42:55;;;;;;;29.15;14.63;;;;;;;9.04;100.00;100564.97;5029706;28;20063;-59
2022/04/05 06:45:22;;;;;;;28.02;13.55;;;;;;;9.06;100.00;100570.91;5029973;28;20094;-59
2022/04/05 06:47:47;;;;;;;27.05;14.02;;;;;;;9.09;100.00;100575.88;5028235;28;20116;-59
2022/04/05 06:50:14;;;;;;;24.27;13.98;;;;;;;9.09;100.00;100586.47;5028939;28;20116;-60
2022/04/05 06:52:41;;;;;;;22.20;13.05;;;;;;;9.11;100.00;100592.44;5029932;28;20028;-60
2022/04/05 06:55:08;;;;;;;23.00;12.23;;;;;;;9.07;100.00;100586.63;5030361;28;20072;-59
2022/04/05 06:57:34;;;;;;;25.83;12.90;;;;;;;9.05;100.00;100580.69;5026974;28;20397;-59
2022/04/05 06:59:59;;;;;;;21.40;12.30;;;;;;;8.99;100.00;100586.66;5020821;28;20033;-59
2022/04/05 07:02:24;;;;;;;19.63;12.80;;;;;;;8.96;100.00;100597.56;5030217;28;20523;-59
2022/04/05 07:04:49;;;;;;;22.85;12.38;;;;;;;8.98;100.00;100587.66;5029251;28;20453;-60
2022/04/05 07:07:15;;;;;;;26.38;13.55;;;;;;;8.98;100.00;100587.66;5030116;28;20029;-60
2022/04/05 07:09:40;;;;;;;25.42;13.07;;;;;;;9.02;100.00;100596.09;5027474;28;20025;-59
2022/04/05 07:12:07;;;;;;;24.75;13.15;;;;;;;9.05;100.00;100601.88;5029243;28;20473;-59
2022/04/05 07:14:33;;;;;;;23.60;12.68;;;;;;;9.10;100.00;100591.59;5029764;28;20024;-60
2022/04/05 07:16:58;;;;;;;26.30;12.77;;;;;;;9.12;100.00;100594.06;5026918;28;20027;-60
2022/04/05 07:19:23;;;;;;;27.10;12.73;;;;;;;9.16;100.00;100587.44;5028897;28;20025;-60
2022/04/05 07:21:49;;;;;;;20.90;12.23;;;;;;;9.18;100.00;100586.28;5030129;28;20072;-60
2022/04/05 07:24:15;;;;;;;19.85;12.15;;;;;;;9.25;100.00;100589.09;5028684;28;21292;-60
2022/04/05 07:26:40;;;;;;;19.88;11.55;;;;;;;9.28;100.00;100591.44;5029786;28;20036;-59
2022/04/05 07:29:05;;;;;;;23.50;13.13;;;;;;;9.29;100.00;100588.59;5022275;28;20029;-60
2022/04/05 07:31:30;;;;;;;19.65;10.98;;;;;;;9.31;100.00;100583.13;5029859;28;20087;-59
2022/04/05 07:33:56;;;;;;;19.65;11.35;;;;;;;9.32;100.00;100584.78;5029219;28;20029;-60
2022/04/05 07:36:21;;;;;;;21.98;11.77;;;;;;;9.35;100.00;100581.81;5029656;28;20637;-60
2022/04/05 07:38:46;;;;;;;19.77;10.63;;;;;;;9.38;100.00;100589.41;5027544;28;20501;-60
2022/04/05 07:41:11;;;;;;;19.15;10.73;;;;;;;9.39;100.00;100583.09;5029572;28;20045;-59
2022/04/05 07:43:37;;;;;;;20.20;10.43;;;;;;;9.38;100.00;100585.94;5030205;28;20481;-59
2022/04/05 07:46:02;;;;;;;15.80;10.65;;;;;;;9.39;100.00;100580.47;5031624;28;20032;-59
2022/04/05 07:48:28;;;;;;;19.33;10.38;;;;;;;9.39;100.00;100576.97;5032945;28;20453;-60
2022/04/05 07:50:54;;;;;;;21.63;9.90;;;;;;;9.40;100.00;100590.06;5029219;28;20029;-60
2022/04/05 07:53:19;;;;;;;20.02;10.65;;;;;;;9.38;100.00;100596.53;5029164;28;20075;-60
2022/04/05 07:55:45;;;;;;;16.42;10.50;;;;;;;9.41;100.00;100585.59;5028851;28;20033;-59
2022/04/05 07:58:11;;;;;;;19.85;9.98;;;;;;;9.42;100.00;100593.38;5026408;28;20033;-59
2022/04/05 08:00:36;;;;;;;16.05;10.48;;;;;;;9.45;100.00;100595.69;5029390;28;20030;-59
2022/04/05 08:03:03;;;;;;;17.67;10.23;;;;;;;9.51;100.00;100597.66;5025858;28;20056;-59
2022/04/05 08:05:28;;;;;;;17.00;10.23;;;;;;;9.53;100.00;100595.66;5029361;28;20025;-60
2022/04/05 08:07:54;;;;;;;16.63;10.10;;;;;;;9.58;100.00;100589.88;5028732;28;20056;-59
2022/04/05 08:10:20;;;;;;;16.25;9.43;;;;;;;9.60;100.00;100595.81;5028128;28;20033;-59
2022/04/05 08:12:47;;;;;;;17.85;9.70;;;;;;;9.59;100.00;100599.47;5028343;28;20090;-59
2022/04/05 08:15:16;;;;;;;19.50;9.30;;;;;;;9.62;100.00;100605.25;5027532;28;20091;-60
2022/04/05 08:17:41;;;;;;;10.97;7.87;;;;;;;9.58;100.00;100593.34;5028532;28;20060;-59
2022/04/05 08:20:08;;;;;;;15.70;8.90;;;;;;;9.57;100.00;100604.94;5026273;28;20053;-60
2022/04/05 08:22:33;;;;;;;11.88;7.90;;;;;;;9.57;99.78;100614.72;5027788;28;20436;-60
2022/04/05 08:24:59;;;;;;;16.17;9.18;;;;;;;9.53;100.00;100602.78;5029156;28;20030;-59
2022/04/05 08:27:24;;;;;;;14.80;9.40;;;;;;;9.55;99.95;100595.50;5028232;28;20066;-60
2022/04/05 08:29:49;;;;;;;16.92;8.75;;;;;;;9.58;100.00;100609.25;5023254;28;20069;-60
2022/04/05 08:32:15;;;;;;;15.20;9.00;;;;;;;9.66;100.00;100611.03;5028318;28;20033;-60
2022/04/05 08:34:42;;;;;;;15.55;8.63;;;;;;;9.74;100.00;100597.75;5028765;28;20021;-59
2022/04/05 08:37:08;;;;;;;12.90;8.35;;;;;;;9.79;100.00;100618.44;5026872;28;20544;-59
2022/04/05 08:39:36;;;;;;;18.52;8.27;;;;;;;9.83;100.00;100617.97;5027223;28;20030;-60
2022/04/05 08:42:03;;;;;;;15.20;8.25;;;;;;;9.84;99.24;100613.50;5025931;28;20441;-60
2022/04/05 08:44:29;;;;;;;13.70;7.55;;;;;;;9.81;99.58;100616.44;5028257;28;20029;-59
2022/04/05 08:46:55;;;;;;;13.15;7.72;;;;;;;9.71;99.27;100616.66;5027867;28;20176;-59
2022/04/05 08:49:21;;;;;;;12.20;7.53;;;;;;;9.63;99.21;100622.00;5024063;28;20033;-60
2022/04/05 08:51:46;;;;;;;15.32;7.95;;;;;;;9.55;99.52;100619.38;5028360;28;20029;-60
2022/04/05 08:54:12;;;;;;;15.98;8.07;;;;;;;9.53;100.00;100624.81;5027476;28;20033;-59
2022/04/05 08:56:37;;;;;;;15.93;8.10;;;;;;;9.48;100.00;100618.38;5027896;28;20040;-60
2022/04/05 08:59:02;;;;;;;13.43;7.97;;;;;;;9.42;100.00;100617.22;5025347;28;20620;-59
2022/04/05 09:01:29;;;;;;;11.75;7.50;;;;;;;9.49;100.00;100609.41;5027661;28;20028;-59
2022/04/05 09:03:58;;;;;;;16.98;9.05;;;;;;;9.59;100.00;100629.47;5024723;28;20030;-60
2022/04/05 09:06:41;;;;;;;15.15;8.90;;;;;;;9.68;100.00;100629.44;5026569;28;20030;-59
2022/04/05 09:09:10;;;;;;;18.30;9.20;;;;;;;9.74;100.00;100620.78;5025300;28;20113;-60
2022/04/05 09:11:41;;;;;;;18.20;9.60;;;;;;;9.79;100.00;100618.44;5027735;28;20029;-59
2022/04/05 09:14:06;;;;;;;13.93;8.63;;;;;;;9.80;100.00;100623.59;5026796;28;20040;-59
2022/04/05 09:16:33;;;;;;;14.95;7.63;;;;;;;9.79;100.00;100632.53;5027768;28;20053;-60
2022/04/05 09:19:00;;;;;;;16.70;8.60;;;;;;;9.80;100.00;100623.59;5026315;28;20497;-60
2022/04/05 09:21:46;;;;;;;15.35;8.48;;;;;;;9.75;100.00;100625.94;5027715;28;20121;-60
2022/04/05 09:24:11;;;;;;;17.63;8.48;;;;;;;9.69;100.00;100625.78;5027204;28;20025;-60
2022/04/05 09:26:43;;;;;;;12.65;9.13;;;;;;;9.61;100.00;100632.78;5027688;28;20026;-60
2022/04/05 09:29:09;;;;;;;17.40;9.90;;;;;;;9.61;100.00;100632.78;5026420;28;20039;-60
2022/04/05 09:31:44;;;;;;;17.17;8.82;;;;;;;9.57;100.00;100630.63;5021051;28;20025;-59
2022/04/05 09:34:19;;;;;;;16.63;9.10;;;;;;;9.61;100.00;100640.72;5027309;28;20037;-60
2022/04/05 09:36:49;;;;;;;15.13;8.77;;;;;;;9.65;100.00;100635.06;5027255;28;20029;-59
2022/04/05 09:39:17;;;;;;;14.43;8.95;;;;;;;9.69;100.00;100644.34;5026516;28;20032;-59
2022/04/05 09:41:52;;;;;;;17.52;8.82;;;;;;;9.76;100.00;100640.84;5026745;28;20025;-60
2022/04/05 09:44:29;;;;;;;14.25;9.20;;;;;;;9.81;100.00;100635.00;5027793;28;20397;-59
2022/04/05 09:47:02;;;;;;;14.02;8.65;;;;;;;9.91;100.00;100647.09;5024382;28;20120;-59
2022/04/05 09:49:34;;;;;;;14.05;8.40;;;;;;;9.91;100.00;100635.66;5024816;28;20477;-59
2022/04/05 09:51:59;;;;;;;16.15;8.63;;;;;;;9.92;100.00;100638.16;5021677;28;20035;-60
2022/04/05 09:54:29;;;;;;;13.18;8.18;;;;;;;9.89;100.00;100642.97;5026549;28;20108;-59
2022/04/05 09:57:07;;;;;;;14.20;8.10;;;;;;;9.86;100.00;100636.19;5027227;28;20037;-60
2022/04/05 09:59:50;;;;;;;10.80;7.43;;;;;;;9.87;100.00;100640.50;5024500;28;20025;-59
2022/04/05 10:02:17;;;;;;;13.90;7.50;;;;;;;9.86;100.00;100641.50;5023183;28;20029;-59
2022/04/05 10:05:09;;;;;;;11.57;7.15;;;;;;;9.89;100.00;100656.22;5024797;28;20507;-59
2022/04/05 10:07:36;;;;;;;13.00;7.38;;;;;;;9.84;100.00;100643.47;5027200;28;20021;-59
2022/04/05 10:10:07;;;;;;;11.57;7.80;;;;;;;9.83;100.00;100644.47;5024038;28;20329;-60
2022/04/05 10:12:32;;;;;;;12.25;7.57;;;;;;;9.80;100.00;100643.97;5023182;28;20393;-60
2022/04/05 10:14:59;;;;;;;14.55;8.43;;;;;;;9.81;100.00;100653.59;5025394;28;20601;-60
2022/04/05 10:17:27;;;;;;;13.38;8.25;;;;;;;9.84;100.00;100640.00;5025569;28;20104;-60
2022/04/05 10:19:56;;;;;;;18.17;8.57;;;;;;;9.85;100.00;100646.97;5025676;28;20041;-59
2022/04/05 10:22:22;;;;;;;12.03;7.97;;;;;;;9.85;100.00;100647.78;5023977;28;20501;-59
2022/04/05 10:24:52;;;;;;;14.65;8.23;;;;;;;9.83;100.00;100656.88;5023990;28;20604;-60
2022/04/05 10:27:19;;;;;;;14.70;7.80;;;;;;;9.84;100.00;100661.22;5023750;28;20029;-60
2022/04/05 10:29:45;;;;;;;14.13;7.78;;;;;;;9.84;100.00;100663.88;5024628;28;20048;-60
2022/04/05 10:32:43;;;;;;;12.32;8.25;;;;;;;9.89;100.00;100664.19;5024363;28;20044;-59
2022/04/05 10:35:10;;;;;;;13.48;8.10;;;;;;;9.87;100.00;100653.75;5021704;28;20051;-60
2022/04/05 10:37:40;;;;;;;12.43;8.65;;;;;;;9.96;100.00;100656.38;5025635;28;20021;-60
2022/04/05 10:40:06;;;;;;;12.85;8.13;;;;;;;10.00;100.00;100649.72;5016395;28;20088;-59
2022/04/05 10:42:39;;;;;;;13.32;8.25;;;;;;;10.06;100.00;100649.03;5024035;28;20041;-59
2022/04/05 10:45:13;;;;;;;14.77;8.18;;;;;;;10.13;100.00;100644.72;5025694;28;20310;-59
2022/04/05 10:48:02;;;;;;;13.38;7.65;;;;;;;10.12;100.00;100645.69;5026527;28;20390;-59
2022/04/05 10:50:28;;;;;;;12.57;7.72;;;;;;;10.20;100.00;100640.34;5023664;28;20384;-59
2022/04/05 10:53:12;;;;;;;11.98;7.28;;;;;;;10.24;100.00;100642.53;5022826;28;20030;-60
2022/04/05 10:56:10;;;;;;;12.82;7.20;;;;;;;10.28;100.00;100648.31;5021776;28;20052;-59
2022/04/05 10:58:52;;;;;;;12.18;7.05;;;;;;;10.28;99.72;100658.91;5023936;28;20037;-59
2022/04/05 11:01:22;;;;;;;9.30;6.43;;;;;;;10.29;99.57;100649.97;5012256;28;20515;-59
2022/04/05 11:04:09;;;;;;;10.38;6.45;;;;;;;10.35;99.40;100648.44;5024842;28;20022;-60
2022/04/05 11:06:59;;;;;;;11.48;6.90;;;;;;;10.41;99.13;100655.72;5026186;28;20560;-60
2022/04/05 11:09:25;;;;;;;11.00;6.50;;;;;;;10.49;99.17;100643.22;5024067;28;20026;-59
2022/04/05 11:11:53;;;;;;;13.70;6.93;;;;;;;10.59;99.17;100661.56;5028833;28;20025;-59